createdAt,value
2023-04-25T00:00:34.416Z,1.30
2023-04-25T00:01:33.584Z,0.50
2023-04-25T00:02:32.582Z,0.60
2023-04-25T00:03:33.717Z,0.60
2023-04-25T00:04:33.788Z,0.30
2023-04-25T00:05:33.730Z,0.70
2023-04-25T00:06:33.422Z,0.50
2023-04-25T00:07:33.426Z,0.20
2023-04-25T00:08:33.407Z,0.40
2023-04-25T00:09:33.435Z,0.30
2023-04-25T00:10:33.382Z,0.30
2023-04-25T00:11:33.355Z,0.20
2023-04-25T00:12:33.352Z,0.50
2023-04-25T00:13:33.377Z,0.30
2023-04-25T00:14:33.348Z,0.40
2023-04-25T00:15:33.601Z,0.30
2023-04-25T00:16:33.449Z,0.10
2023-04-25T00:17:33.605Z,0.30
2023-04-25T00:18:33.313Z,0.30
2023-04-25T00:19:33.350Z,0.60
2023-04-25T00:20:33.319Z,0.30
2023-04-25T00:21:33.278Z,0.20
2023-04-25T00:22:33.266Z,1.40
2023-04-25T00:23:33.295Z,0.40
2023-04-25T00:24:33.307Z,0.50
2023-04-25T00:25:33.233Z,0.60
2023-04-25T00:26:33.218Z,0.50
2023-04-25T00:27:33.197Z,0.50
2023-04-25T00:28:33.179Z,0.30
2023-04-25T00:29:33.216Z,1.10
2023-04-25T00:30:33.170Z,0.80
2023-04-25T00:31:33.203Z,0.90
2023-04-25T00:32:33.211Z,0.20
2023-04-25T00:33:33.148Z,0.80
2023-04-25T00:34:33.166Z,0.30
2023-04-25T00:35:33.224Z,0.20
2023-04-25T00:36:33.135Z,0.50
2023-04-25T00:37:33.370Z,0.20
2023-04-25T00:38:33.095Z,0.30
2023-04-25T00:39:33.137Z,1.00
2023-04-25T00:40:33.073Z,0.40
2023-04-25T00:41:33.092Z,0.10
2023-04-25T00:42:33.046Z,0.30
2023-04-25T00:43:33.095Z,0.50
2023-04-25T00:44:33.042Z,0.20
2023-04-25T00:45:33.062Z,0.20
2023-04-25T00:46:33.081Z,0.70
2023-04-25T00:47:33.032Z,0.30
2023-04-25T00:48:32.992Z,0.40
2023-04-25T00:49:33.002Z,0.10
2023-04-25T00:50:32.985Z,0.90
2023-04-25T00:51:33.027Z,0.30
2023-04-25T00:52:32.956Z,0.50
2023-04-25T00:53:32.954Z,0.40
2023-04-25T00:54:32.973Z,0.80
2023-04-25T00:55:32.936Z,0.60
2023-04-25T00:56:33.684Z,0.50
2023-04-25T00:57:32.912Z,0.20
2023-04-25T00:58:32.948Z,0.10
2023-04-25T00:59:33.111Z,0.40
2023-04-25T01:00:33.119Z,0.60
2023-04-25T01:01:32.964Z,0.50
2023-04-25T01:02:32.930Z,0.30
2023-04-25T01:03:33.033Z,0.70
2023-04-25T01:04:32.896Z,0.80
2023-04-25T01:05:32.817Z,0.30
2023-04-25T01:06:32.826Z,1.00
2023-04-25T01:07:32.814Z,0.30
2023-04-25T01:08:32.798Z,0.60
2023-04-25T01:09:32.761Z,0.20
2023-04-25T01:10:32.770Z,0.70
2023-04-25T01:11:32.784Z,0.40
2023-04-25T01:12:32.753Z,0.20
2023-04-25T01:13:32.754Z,1.20
2023-04-25T01:14:32.761Z,0.80
2023-04-25T01:15:32.733Z,0.40
2023-04-25T01:16:32.733Z,0.40
2023-04-25T01:17:32.739Z,0.40
2023-04-25T01:18:32.733Z,1.00
2023-04-25T01:19:32.756Z,0.70
2023-04-25T01:20:32.735Z,0.30
2023-04-25T01:21:32.684Z,0.20
2023-04-25T01:22:32.658Z,0.30
2023-04-25T01:23:32.636Z,0.20
2023-04-25T01:24:32.634Z,0.20
2023-04-25T01:25:33.410Z,0.40
2023-04-25T01:26:32.585Z,0.30
2023-04-25T01:27:32.661Z,0.40
2023-04-25T01:28:32.620Z,0.50
2023-04-25T01:29:32.586Z,0.40
2023-04-25T01:30:32.618Z,0.40
2023-04-25T01:31:32.599Z,0.60
2023-04-25T01:32:32.591Z,0.40
2023-04-25T01:33:32.556Z,0.50
2023-04-25T01:34:32.535Z,0.20
2023-04-25T01:35:32.533Z,0.30
2023-04-25T01:36:32.519Z,0.30
2023-04-25T01:37:32.523Z,0.40
2023-04-25T01:38:32.496Z,0.20
2023-04-25T01:39:32.524Z,0.30
2023-04-25T03:17:23.798Z,1.00
2023-04-25T03:18:18.849Z,1.50
2023-04-25T03:19:19.290Z,0.90
2023-04-25T03:20:18.837Z,0.60
2023-04-25T03:21:18.837Z,0.20
2023-04-25T03:22:19.160Z,0.50
2023-04-25T03:23:22.221Z,0.50
2023-04-25T03:24:18.790Z,0.50
2023-04-25T03:25:18.759Z,0.50
2023-04-25T03:26:18.755Z,0.40
2023-04-25T03:27:19.432Z,0.20
2023-04-25T03:28:18.727Z,0.10
2023-04-25T03:29:19.312Z,0.50
2023-04-25T03:30:20.120Z,0.50
2023-04-25T03:31:18.792Z,0.90
2023-04-25T03:32:18.784Z,0.60
2023-04-25T03:33:19.027Z,0.40
2023-04-25T03:34:19.719Z,0.20
2023-04-25T03:35:18.733Z,0.20
2023-04-25T03:36:18.769Z,0.60
2023-04-25T03:37:18.794Z,0.40
2023-04-25T03:38:18.802Z,0.20
2023-04-25T03:39:18.815Z,0.80
2023-04-25T03:40:18.631Z,0.50
2023-04-25T03:41:19.418Z,0.70
2023-04-25T03:42:18.634Z,0.20
2023-04-25T03:43:18.781Z,0.40
2023-04-25T03:44:18.592Z,0.30
2023-04-25T03:45:18.785Z,0.30
2023-04-25T03:46:18.598Z,0.30
2023-04-25T03:47:18.913Z,0.40
2023-04-25T03:48:18.510Z,0.20
2023-04-25T03:49:19.526Z,0.30
2023-04-25T03:50:18.531Z,0.40
2023-04-25T03:51:18.480Z,0.50
2023-04-25T03:52:18.458Z,0.80
2023-04-25T03:53:18.458Z,0.30
2023-04-25T03:54:18.464Z,0.20
2023-04-25T03:55:18.428Z,0.20
2023-04-25T03:56:18.416Z,0.20
2023-04-25T03:57:18.654Z,0.30
2023-04-25T03:58:19.480Z,0.60
2023-04-25T03:59:18.670Z,0.50
2023-04-25T04:00:26.097Z,0.70
2023-04-25T04:01:18.381Z,0.40
2023-04-25T04:02:18.421Z,0.70
2023-04-25T04:03:20.261Z,2.50
2023-04-25T04:04:19.345Z,4.00
2023-04-25T04:05:18.998Z,4.20
2023-04-25T04:06:18.317Z,1.00
2023-04-25T04:07:18.435Z,8.50
2023-04-25T04:08:19.358Z,5.40
2023-04-25T04:10:11.530Z,3.50
2023-04-25T04:10:22.334Z,3.00
2023-04-25T04:11:22.398Z,1.70
2023-04-25T04:12:21.662Z,1.30
2023-04-25T04:13:22.771Z,2.10
2023-04-25T04:14:21.964Z,1.40
2023-04-25T04:15:21.607Z,1.60
2023-04-25T04:16:21.712Z,1.50
2023-04-25T04:17:21.600Z,1.30
2023-04-25T04:18:21.576Z,2.00
2023-04-25T04:19:21.581Z,1.90
2023-04-25T04:20:21.551Z,1.40
2023-04-25T04:21:21.550Z,1.30
2023-04-25T04:22:21.524Z,1.70
2023-04-25T04:23:21.532Z,1.60
2023-04-25T04:24:21.556Z,1.70
2023-04-25T04:25:21.541Z,1.60
2023-04-25T04:26:21.497Z,0.60
2023-04-25T04:27:21.532Z,0.90
2023-04-25T04:28:21.481Z,0.70
2023-04-25T04:29:21.519Z,0.80
2023-04-25T04:30:21.470Z,0.50
2023-04-25T04:31:21.491Z,0.50
2023-04-25T04:32:21.487Z,0.80
2023-04-25T04:33:21.421Z,0.50
2023-04-25T04:34:21.416Z,0.40
2023-04-25T04:35:21.407Z,0.30
2023-04-25T04:36:21.391Z,0.80
2023-04-25T04:37:21.390Z,0.60
2023-04-25T04:38:21.379Z,0.20
2023-04-25T04:39:21.390Z,0.40
2023-04-25T04:40:21.337Z,0.20
2023-04-25T04:41:21.338Z,0.60
2023-04-25T04:42:21.330Z,0.30
2023-04-25T04:43:21.351Z,0.50
2023-04-25T04:44:21.315Z,0.30
2023-04-25T04:45:22.951Z,0.40
2023-04-25T04:46:21.341Z,0.90
2023-04-25T04:47:21.315Z,0.40
2023-04-25T04:48:21.282Z,0.50
2023-04-25T04:49:21.295Z,0.50
2023-04-25T04:50:21.257Z,0.80
2023-04-25T04:51:21.433Z,0.80
2023-04-25T04:52:21.230Z,0.50
2023-04-25T04:53:21.236Z,0.30
2023-04-25T04:54:20.600Z,1.50
2023-04-25T05:10:41.471Z,1.00
2023-04-25T05:11:49.381Z,0.50
2023-04-25T05:12:41.881Z,1.00
2023-04-25T05:25:50.895Z,0.30
2023-04-25T05:26:52.461Z,0.10
2023-04-25T05:28:48.073Z,0.70
2023-04-25T05:34:16.266Z,1.30
2023-04-25T06:03:00.872Z,0.30
2023-04-25T06:05:20.599Z,1.50
2023-04-25T06:06:32.844Z,1.50
2023-04-25T06:09:17.474Z,1.60
2023-04-25T06:10:18.501Z,1.40
2023-04-25T06:11:31.091Z,1.40
2023-04-25T06:32:10.864Z,0.10
2023-04-25T06:32:32.244Z,0.30
2023-04-25T06:33:38.824Z,0.10
2023-04-25T06:34:40.744Z,0.50
2023-04-25T06:35:40.331Z,0.40
2023-04-25T06:36:32.192Z,0.70
2023-04-25T06:37:32.506Z,0.60
2023-04-25T06:38:41.449Z,0.30
2023-04-25T06:39:32.910Z,0.20
2023-04-25T06:40:45.645Z,0.30
2023-04-25T06:43:49.711Z,1.10
2023-04-25T06:44:47.488Z,0.90
2023-04-25T06:45:48.644Z,0.70
2023-04-25T06:46:47.513Z,0.80
2023-04-25T06:47:55.654Z,0.20
2023-04-25T06:48:48.030Z,0.80
2023-04-25T06:49:47.450Z,0.20
2023-04-25T06:50:47.426Z,0.50
2023-04-25T06:51:49.160Z,0.40
2023-04-25T06:52:48.439Z,0.20
2023-04-25T06:53:47.414Z,0.60
2023-04-25T06:54:47.447Z,0.30
2023-04-25T06:55:47.355Z,0.60
2023-04-25T06:56:47.333Z,0.20
2023-04-25T06:57:47.352Z,0.30
2023-04-25T06:58:47.338Z,0.90
2023-04-25T06:59:47.314Z,0.30
2023-04-25T07:00:47.380Z,0.30
2023-04-25T07:01:47.405Z,0.50
2023-04-25T07:02:47.449Z,0.10
2023-04-25T07:03:47.508Z,0.30
2023-04-25T07:04:47.518Z,0.30
2023-04-25T07:05:47.282Z,0.30
2023-04-25T07:06:47.248Z,0.80
2023-04-25T07:07:47.293Z,0.50
2023-04-25T07:08:47.263Z,0.70
2023-04-25T07:09:47.236Z,0.20
2023-04-25T07:10:49.595Z,0.20
2023-04-25T07:11:47.200Z,0.20
2023-04-25T07:12:47.186Z,0.10
2023-04-25T07:13:47.272Z,0.20
2023-04-25T07:14:47.181Z,0.20
2023-04-25T07:15:47.181Z,0.30
2023-04-25T07:16:47.184Z,1.10
2023-04-25T07:17:47.227Z,0.40
2023-04-25T07:18:47.114Z,0.30
2023-04-25T07:19:47.125Z,0.50
2023-04-25T07:20:47.131Z,0.50
2023-04-25T07:21:48.063Z,0.50
2023-04-25T07:22:48.056Z,0.50
2023-04-25T07:23:48.058Z,0.70
2023-04-25T07:24:47.080Z,0.70
2023-04-25T07:25:48.069Z,1.20
2023-04-25T07:26:47.054Z,1.80
2023-04-25T07:27:53.630Z,1.20
2023-04-25T07:28:47.050Z,0.30
2023-04-25T07:29:47.028Z,1.10
2023-04-25T07:30:47.031Z,0.60
2023-04-25T07:31:47.030Z,0.90
2023-04-25T07:32:47.277Z,0.50
2023-04-25T07:33:49.600Z,0.50
2023-04-25T07:34:47.603Z,0.60
2023-04-25T07:35:46.956Z,0.20
2023-04-25T07:36:46.940Z,0.50
2023-04-25T07:59:41.623Z,0.90
2023-04-25T08:00:50.189Z,1.20
2023-04-25T08:01:42.461Z,0.40
2023-04-25T08:02:49.217Z,0.50
2023-04-25T08:03:42.778Z,0.30
2023-04-25T08:04:49.263Z,0.10
2023-04-25T08:05:42.821Z,0.40
2023-04-25T08:09:34.471Z,0.90
2023-04-25T08:10:09.856Z,1.00
2023-04-25T08:11:09.644Z,0.60
2023-04-25T08:12:09.169Z,0.30
2023-04-25T08:29:46.496Z,0.10
2023-04-25T08:30:39.852Z,0.30
2023-04-25T08:31:39.860Z,0.30
2023-04-25T08:32:40.118Z,0.40
2023-04-25T08:33:39.820Z,0.20
2023-04-25T08:34:39.785Z,0.60
2023-04-25T08:35:39.782Z,0.60
2023-04-25T08:36:40.438Z,0.40
2023-04-25T08:37:39.737Z,0.40
2023-04-25T08:38:39.722Z,0.70
2023-04-25T08:39:39.779Z,0.20
2023-04-25T08:40:39.885Z,0.30
2023-04-25T08:41:39.726Z,0.40
2023-04-25T08:42:39.692Z,0.40
2023-04-25T08:43:39.705Z,0.20
2023-04-25T08:44:39.683Z,0.50
2023-04-25T08:45:39.672Z,0.40
2023-04-25T08:46:39.965Z,0.30
2023-04-25T08:47:39.685Z,0.60
2023-04-25T08:48:39.622Z,0.20
2023-04-25T08:49:39.660Z,1.00
2023-04-25T08:50:39.738Z,1.30
2023-04-25T08:51:39.628Z,0.20
2023-04-25T08:52:40.812Z,0.30
2023-04-25T08:53:46.375Z,0.30
2023-04-25T08:54:41.614Z,0.30
2023-04-25T08:55:39.604Z,0.30
2023-04-25T08:56:39.669Z,0.60
2023-04-25T08:57:39.535Z,1.50
2023-04-25T08:58:47.419Z,0.70
2023-04-25T08:59:39.674Z,0.40
2023-04-25T09:00:38.527Z,0.80
2023-04-25T09:01:39.678Z,0.30
2023-04-25T09:02:39.594Z,0.30
2023-04-25T09:03:39.863Z,0.40
2023-04-25T09:04:39.460Z,0.20
2023-04-25T09:05:39.447Z,0.30
2023-04-25T09:06:46.657Z,0.60
2023-04-25T09:07:39.488Z,0.30
2023-04-25T09:08:40.398Z,0.60
2023-04-25T09:09:47.167Z,0.30
2023-04-25T09:10:39.393Z,0.20
2023-04-25T09:11:46.045Z,0.50
2023-04-25T09:12:39.376Z,0.30
2023-04-25T09:13:46.041Z,0.40
2023-04-25T09:14:45.986Z,0.30
2023-04-25T09:21:25.472Z,0.60
2023-04-25T09:22:54.529Z,0.30
2023-04-25T09:23:55.509Z,0.50
2023-04-25T09:27:23.428Z,0.60
2023-04-25T09:29:13.402Z,0.40
2023-04-25T09:30:17.673Z,0.10
2023-04-25T09:44:17.964Z,0.30
2023-04-25T09:45:25.575Z,0.20
2023-04-25T09:46:25.564Z,0.10
2023-04-25T09:47:28.240Z,0.10
2023-04-25T09:48:18.997Z,0.20
2023-04-25T09:50:58.292Z,0.30
2023-04-25T10:09:40.287Z,0.10
2023-04-25T10:10:49.652Z,0.10
2023-04-25T10:12:02.238Z,0.20
2023-04-25T10:12:41.190Z,0.10
2023-04-25T10:13:48.173Z,0.10
2023-04-25T10:14:41.256Z,0.10
2023-04-25T10:19:20.368Z,0.10
2023-04-25T10:20:21.985Z,0.40
2023-04-25T10:21:21.360Z,0.10
2023-04-25T10:22:21.282Z,0.10
2023-04-25T10:23:21.290Z,0.10
2023-04-25T10:24:21.336Z,0.00
2023-04-25T10:25:21.993Z,0.10
2023-04-25T10:26:22.163Z,0.20
2023-04-25T10:27:21.265Z,0.20
2023-04-25T10:28:21.233Z,0.20
2023-04-25T10:29:21.305Z,0.20
2023-04-25T10:30:21.247Z,0.20
2023-04-25T10:31:21.322Z,0.10
2023-04-25T10:32:21.233Z,0.30
2023-04-25T10:33:21.186Z,0.20
2023-04-25T10:34:21.203Z,0.30
2023-04-25T10:35:21.153Z,0.40
2023-04-25T10:36:29.844Z,0.10
2023-04-25T10:37:21.147Z,0.10
2023-04-25T10:38:27.703Z,0.30
2023-04-25T10:39:21.175Z,0.10
2023-04-25T10:40:21.691Z,0.10
2023-04-25T10:41:21.099Z,0.20
2023-04-25T10:42:21.082Z,0.10
2023-04-25T10:43:21.082Z,0.10
2023-04-25T10:44:21.064Z,0.10
2023-04-25T10:45:27.710Z,0.10
2023-04-25T10:46:21.089Z,0.10
2023-04-25T10:47:21.109Z,0.30
2023-04-25T10:48:21.023Z,0.10
2023-04-25T10:49:20.997Z,0.20
2023-04-25T10:50:21.030Z,0.10
2023-04-25T10:54:22.235Z,0.20
2023-04-25T10:55:27.539Z,0.20
2023-04-25T10:56:20.229Z,0.10
2023-04-25T10:57:26.884Z,0.10
2023-04-25T10:58:20.211Z,0.20
2023-04-25T10:59:20.224Z,0.30
2023-04-25T11:02:20.381Z,0.10
2023-04-25T11:03:14.643Z,0.10
2023-04-25T11:03:30.705Z,0.20
2023-04-25T11:04:30.807Z,0.20
2023-04-25T11:05:30.503Z,0.20
2023-04-25T11:06:30.504Z,0.30
2023-04-25T11:07:38.343Z,0.20
2023-04-25T11:08:37.618Z,0.10
2023-04-25T11:09:40.118Z,0.10
2023-04-25T11:10:30.474Z,0.10
2023-04-25T11:11:30.512Z,0.10
2023-04-25T11:12:36.978Z,0.10
2023-04-25T11:13:38.600Z,0.10
2023-04-25T11:14:30.677Z,0.10
2023-04-25T11:15:30.417Z,0.10
2023-04-25T11:19:08.186Z,0.20
2023-04-25T11:20:18.742Z,0.20
2023-04-25T11:21:15.685Z,0.10
2023-04-25T11:26:34.552Z,0.10
2023-04-25T11:27:34.501Z,0.20
2023-04-25T11:28:27.912Z,0.20
2023-04-25T11:29:27.816Z,0.10
2023-04-25T11:30:27.799Z,0.10
2023-04-25T11:31:35.035Z,0.10
2023-04-25T11:33:54.598Z,0.10
2023-04-25T11:35:03.301Z,0.10
2023-04-25T11:35:55.550Z,0.10
2023-04-25T11:39:34.608Z,0.10
2023-04-25T11:40:40.425Z,0.10
2023-04-25T11:41:45.857Z,0.10
2023-04-25T11:42:40.190Z,0.10
2023-04-25T11:43:40.884Z,0.10
2023-04-25T11:44:46.694Z,0.00
2023-04-25T11:45:42.843Z,0.10
2023-04-25T11:46:32.327Z,0.00
2023-04-25T11:50:30.729Z,0.10
2023-04-25T11:57:12.406Z,0.10
2023-04-25T11:58:13.914Z,0.10
2023-04-25T11:59:14.181Z,0.10
2023-04-25T12:00:14.493Z,0.00
2023-04-25T12:01:13.293Z,0.10
2023-04-25T12:02:13.285Z,0.00
2023-04-25T12:03:13.320Z,0.10
2023-04-25T12:04:13.445Z,0.10
2023-04-25T12:05:30.283Z,0.10
2023-04-25T12:06:13.340Z,0.10
2023-04-25T12:07:13.164Z,0.10
2023-04-25T12:08:13.172Z,0.10
2023-04-25T12:09:13.127Z,0.20
2023-04-25T12:10:13.127Z,0.10
2023-04-25T12:11:13.140Z,0.10
2023-04-25T12:12:13.089Z,0.10
2023-04-25T12:13:13.097Z,0.10
2023-04-25T12:14:19.757Z,0.10
2023-04-25T12:15:22.486Z,0.10
2023-04-25T12:16:13.058Z,0.10
2023-04-25T12:17:13.029Z,0.10
2023-04-25T12:18:21.492Z,0.10
2023-04-25T12:19:13.130Z,0.10
2023-04-25T12:20:13.351Z,0.10
2023-04-25T12:21:19.695Z,0.10
2023-04-25T12:22:13.031Z,0.10
2023-04-25T12:23:19.681Z,0.00
2023-04-25T12:24:13.017Z,0.10
2023-04-25T12:25:12.958Z,0.20
2023-04-25T12:26:29.104Z,0.10
2023-04-25T12:27:12.941Z,0.10
2023-04-25T12:28:12.970Z,0.10
2023-04-25T12:29:12.976Z,0.10
2023-04-25T12:30:20.649Z,0.10
2023-04-25T12:37:07.968Z,0.40
2023-04-25T12:37:33.680Z,0.20
2023-04-25T12:38:33.671Z,0.40
2023-04-25T12:39:33.658Z,0.10
2023-04-25T12:40:33.658Z,0.20
2023-04-25T12:41:33.595Z,0.10
2023-04-25T12:42:33.616Z,0.10
2023-04-25T12:43:33.615Z,0.10
2023-04-25T12:44:33.565Z,0.10
2023-04-25T12:45:33.559Z,0.10
2023-04-25T12:46:33.574Z,0.10
2023-04-25T12:47:33.553Z,0.10
2023-04-25T12:48:33.538Z,0.20
2023-04-25T12:49:33.551Z,0.10
2023-04-25T12:50:33.551Z,0.10
2023-04-25T12:51:33.541Z,0.20
2023-04-25T12:52:33.497Z,0.10
2023-04-25T12:53:35.147Z,0.20
2023-04-25T12:54:33.482Z,0.10
2023-04-25T12:55:33.470Z,0.30
2023-04-25T12:56:33.462Z,0.20
2023-04-25T12:57:33.463Z,0.10
2023-04-25T12:58:33.441Z,0.10
2023-04-25T12:59:33.436Z,0.10
2023-04-25T13:00:33.501Z,0.10
2023-04-25T13:01:34.799Z,0.20
2023-04-25T13:02:33.455Z,0.10
2023-04-25T13:03:33.473Z,0.10
2023-04-25T13:04:33.430Z,0.30
2023-04-25T13:05:33.370Z,0.30
2023-04-25T13:06:33.380Z,0.30
2023-04-25T13:07:35.410Z,0.10
2023-04-25T13:08:33.313Z,0.10
2023-04-25T13:09:33.328Z,0.10
2023-04-25T13:10:33.320Z,0.10
2023-04-25T13:11:34.193Z,0.10
2023-04-25T13:12:33.362Z,0.30
2023-04-25T13:13:33.310Z,0.10
2023-04-25T13:14:33.285Z,0.10
2023-04-25T13:15:33.284Z,0.10
2023-04-25T13:16:33.274Z,0.20
2023-04-25T13:17:33.286Z,0.10
2023-04-25T13:18:33.196Z,0.30
2023-04-25T13:19:33.232Z,0.10
2023-04-25T13:20:33.228Z,0.10
2023-04-25T13:21:33.548Z,0.20
2023-04-25T13:22:33.296Z,0.10
2023-04-25T13:23:33.198Z,0.10
2023-04-25T13:24:33.193Z,0.10
2023-04-25T13:25:33.166Z,0.20
2023-04-25T13:26:33.301Z,0.10
2023-04-25T13:27:33.159Z,0.10
2023-04-25T13:28:33.918Z,0.30
2023-04-25T13:29:33.186Z,0.10
2023-04-25T13:30:33.085Z,0.10
2023-04-25T13:31:33.196Z,0.20
2023-04-25T13:32:33.089Z,0.30
2023-04-25T13:33:33.078Z,0.20
2023-04-25T13:34:33.154Z,0.20
2023-04-25T13:35:33.105Z,0.30
2023-04-25T13:36:33.063Z,0.10
2023-04-25T13:37:33.350Z,0.20
2023-04-25T13:38:33.042Z,0.20
2023-04-25T13:39:33.040Z,0.60
2023-04-25T13:40:33.265Z,0.30
2023-04-25T13:41:33.044Z,0.10
2023-04-25T13:42:32.995Z,0.30
2023-04-25T13:43:33.234Z,0.30
2023-04-25T13:44:32.954Z,0.30
2023-04-25T13:45:33.694Z,0.30
2023-04-25T13:46:45.525Z,0.40
2023-04-25T13:47:33.029Z,0.50
2023-04-25T13:48:33.012Z,0.20
2023-04-25T13:49:32.946Z,0.20
2023-04-25T13:50:32.905Z,0.10
2023-04-25T13:51:32.928Z,0.40
2023-04-25T13:52:32.916Z,0.20
2023-04-25T13:53:42.286Z,0.20
2023-04-25T13:54:33.005Z,0.30
2023-04-25T14:14:32.518Z,0.80
2023-04-25T14:15:33.655Z,0.80
2023-04-25T14:16:33.184Z,0.30
2023-04-25T14:17:43.243Z,0.30
2023-04-25T14:18:39.747Z,0.30
2023-04-25T14:19:40.546Z,0.20
2023-04-25T14:20:40.566Z,0.70
2023-04-25T14:21:35.604Z,0.60
2023-04-25T14:22:40.718Z,0.30
2023-04-25T14:23:40.806Z,0.30
2023-04-25T14:26:07.468Z,1.00
2023-04-25T14:27:08.406Z,0.80
2023-04-25T14:28:15.387Z,1.00
2023-04-25T14:34:37.547Z,0.20
2023-04-25T14:35:39.834Z,0.20
2023-04-25T14:36:33.171Z,0.40
2023-04-25T14:37:33.163Z,0.40
2023-04-25T14:38:33.135Z,0.40
2023-04-25T14:39:33.134Z,0.50
2023-04-25T14:40:33.113Z,0.40
2023-04-25T14:41:33.154Z,0.30
2023-04-25T14:42:33.284Z,0.30
2023-04-25T14:43:33.106Z,0.60
2023-04-25T14:44:33.065Z,0.40
2023-04-25T14:45:33.169Z,0.10
2023-04-25T14:46:33.138Z,0.60
2023-04-25T14:47:33.133Z,0.60
2023-04-25T14:48:34.053Z,0.50
2023-04-25T14:49:33.201Z,0.40
2023-04-25T14:57:03.550Z,1.20
2023-04-25T14:58:03.377Z,1.20
2023-04-25T14:59:10.052Z,1.20
2023-04-25T15:00:09.939Z,1.60
2023-04-25T15:02:15.112Z,1.20
2023-04-25T15:03:24.716Z,1.20
2023-04-25T15:04:22.135Z,1.50
2023-04-25T15:05:25.340Z,1.10
2023-04-25T15:06:15.483Z,0.80
2023-04-25T15:07:23.175Z,0.80
2023-04-25T15:08:30.028Z,0.70
2023-04-25T15:09:15.386Z,2.70
2023-04-25T15:10:15.408Z,0.60
2023-04-25T15:11:23.195Z,0.30
2023-04-25T15:12:15.382Z,0.70
2023-04-25T15:13:15.440Z,0.70
2023-04-25T15:14:24.368Z,0.80
2023-04-25T15:15:22.615Z,0.90
2023-04-25T15:25:59.531Z,0.20
2023-04-25T15:26:44.926Z,0.40
2023-04-25T15:27:51.520Z,0.60
2023-04-25T15:28:44.929Z,0.90
2023-04-25T15:29:55.807Z,1.40
2023-04-25T15:30:44.936Z,0.90
2023-04-25T15:31:44.979Z,0.40
2023-04-25T15:32:51.536Z,0.70
2023-04-25T15:33:51.836Z,0.60
2023-04-25T15:34:44.953Z,1.50
2023-04-25T15:35:44.901Z,0.70
2023-04-25T15:40:46.344Z,1.70
2023-04-25T15:41:46.586Z,1.40
2023-04-25T15:42:46.611Z,1.80
2023-04-25T15:43:47.043Z,1.70
2023-04-25T15:45:09.275Z,0.50
2023-04-25T15:46:20.793Z,0.50
2023-04-25T15:46:47.275Z,0.60
2023-04-25T15:47:49.920Z,1.80
2023-04-25T15:48:46.497Z,0.50
2023-04-25T15:49:47.274Z,0.80
2023-04-25T15:52:18.798Z,1.50
2023-04-25T15:53:15.691Z,1.60
2023-04-25T15:54:22.437Z,1.60
2023-04-25T15:55:15.724Z,1.70
2023-04-25T15:56:15.678Z,1.60
2023-04-25T15:57:15.652Z,1.90
2023-04-25T15:58:22.221Z,1.70
2023-04-25T15:59:23.040Z,0.90
2023-04-25T16:00:23.348Z,0.80
2023-04-25T16:01:22.243Z,0.70
2023-04-25T16:02:23.052Z,0.90
2023-04-25T16:03:22.629Z,0.60
2023-04-25T16:04:15.843Z,0.60
2023-04-25T16:05:24.413Z,0.90
2023-04-25T16:06:32.713Z,0.70
2023-04-25T16:07:15.521Z,1.00
2023-04-25T16:08:15.777Z,1.20
2023-04-25T16:09:32.895Z,1.10
2023-04-25T16:13:13.621Z,1.00
2023-04-25T16:13:21.576Z,0.80
2023-04-25T16:14:18.916Z,1.30
2023-04-25T16:15:18.972Z,1.20
2023-04-25T16:16:19.117Z,1.00
2023-04-25T16:17:19.001Z,0.80
2023-04-25T16:18:41.699Z,0.70
2023-04-25T16:19:18.869Z,1.10
2023-04-25T16:20:18.837Z,0.70
2023-04-25T16:21:34.342Z,0.60
2023-04-25T16:22:18.857Z,0.60
2023-04-25T16:23:18.851Z,1.10
2023-04-25T16:24:18.814Z,0.50
2023-04-25T16:25:18.809Z,1.10
2023-04-25T16:26:18.829Z,0.70
2023-04-25T16:27:18.782Z,0.70
2023-04-25T16:28:18.875Z,0.40
2023-04-25T16:29:18.768Z,1.00
2023-04-25T16:30:18.740Z,1.20
2023-04-25T16:31:18.858Z,0.60
2023-04-25T16:32:18.744Z,1.30
2023-04-25T16:33:18.825Z,0.60
2023-04-25T16:34:18.725Z,0.40
2023-04-25T16:35:18.958Z,0.40
2023-04-25T16:36:18.706Z,0.90
2023-04-25T16:37:19.489Z,1.10
2023-04-25T16:38:18.660Z,0.30
2023-04-25T16:39:18.677Z,0.70
2023-04-25T16:40:18.704Z,0.40
2023-04-25T16:41:18.669Z,0.50
2023-04-25T16:42:18.671Z,0.80
2023-04-25T16:43:18.618Z,0.70
2023-04-25T16:44:18.603Z,0.70
2023-04-25T16:45:18.597Z,0.60
2023-04-25T16:46:18.592Z,0.50
2023-04-25T16:47:20.238Z,0.50
2023-04-25T16:48:18.555Z,0.40
2023-04-25T16:49:18.550Z,1.00
2023-04-25T16:50:18.553Z,0.90
2023-04-25T16:51:18.557Z,0.70
2023-04-25T16:52:18.558Z,0.70
2023-04-25T16:53:18.496Z,0.90
2023-04-25T16:54:18.503Z,0.40
2023-04-25T16:55:18.568Z,0.40
2023-04-25T16:56:18.461Z,1.00
2023-04-25T16:57:18.481Z,0.60
2023-04-25T16:58:18.513Z,0.90
2023-04-25T16:59:18.449Z,1.10
2023-04-25T17:00:18.432Z,0.60
2023-04-25T17:01:18.468Z,1.00
2023-04-25T17:02:18.489Z,0.90
2023-04-25T17:03:18.594Z,0.90
2023-04-25T17:04:18.640Z,1.00
2023-04-25T17:05:18.390Z,0.70
2023-04-25T17:06:18.358Z,1.00
2023-04-25T17:07:18.370Z,0.80
2023-04-25T17:08:18.350Z,0.70
2023-04-25T17:09:18.359Z,0.70
2023-04-25T17:10:18.333Z,0.70
2023-04-25T17:11:18.343Z,0.60
2023-04-25T17:12:18.319Z,0.80
2023-04-25T17:13:18.299Z,0.70
2023-04-25T17:14:18.307Z,0.60
2023-04-25T17:15:18.916Z,0.80
2023-04-25T17:16:18.280Z,0.60
2023-04-25T17:17:19.285Z,0.60
2023-04-25T17:19:18.308Z,0.80
2023-04-25T17:20:24.880Z,0.70
2023-04-25T17:21:18.246Z,0.40
2023-04-25T17:22:18.228Z,0.60
2023-04-25T17:23:18.190Z,0.50
2023-04-25T17:24:18.250Z,1.30
2023-04-25T17:25:18.222Z,1.10
2023-04-25T17:26:18.226Z,1.10
2023-04-25T17:27:26.312Z,1.00
2023-04-25T17:28:26.294Z,1.10
2023-04-25T17:29:18.158Z,1.20
2023-04-25T17:30:18.217Z,0.60
2023-04-25T17:32:17.556Z,0.80
2023-04-25T17:35:48.193Z,1.70
2023-04-25T17:36:49.110Z,1.80
2023-04-25T17:37:49.119Z,2.00
2023-04-25T17:38:49.180Z,2.20
2023-04-25T17:39:49.083Z,0.60
2023-04-25T17:40:49.089Z,0.70
2023-04-25T17:41:49.065Z,0.80
2023-04-25T17:42:49.062Z,1.00
2023-04-25T17:43:49.035Z,0.90
2023-04-25T17:44:49.007Z,1.20
2023-04-25T17:45:49.082Z,0.90
2023-04-25T17:46:49.143Z,1.00
2023-04-25T17:47:49.046Z,0.50
2023-04-25T17:48:49.348Z,0.90
2023-04-25T17:49:48.965Z,0.90
2023-04-25T17:50:48.977Z,0.80
2023-04-25T17:51:48.947Z,0.80
2023-04-25T17:52:48.942Z,0.70
2023-04-25T17:53:48.956Z,0.70
2023-04-25T17:54:49.794Z,0.90
2023-04-25T17:55:48.917Z,1.30
2023-04-25T17:56:48.910Z,0.80
2023-04-25T17:57:48.884Z,0.70
2023-04-25T17:58:49.125Z,0.50
2023-04-25T17:59:48.862Z,0.80
2023-04-25T18:00:48.888Z,0.80
2023-04-25T18:01:48.954Z,1.00
2023-04-25T18:02:48.916Z,0.80
2023-04-25T18:03:49.452Z,0.80
2023-04-25T18:04:48.831Z,1.40
2023-04-25T18:05:48.819Z,0.80
2023-04-25T18:06:48.791Z,0.80
2023-04-25T18:07:48.787Z,0.50
2023-04-25T18:08:49.018Z,0.80
2023-04-25T18:09:48.801Z,0.70
2023-04-25T18:10:56.488Z,0.70
2023-04-25T18:11:48.769Z,1.20
2023-04-25T18:12:48.722Z,0.80
2023-04-25T18:13:48.736Z,0.60
2023-04-25T18:14:49.671Z,0.90
2023-04-25T18:15:48.846Z,1.00
2023-04-25T18:16:48.692Z,1.20
2023-04-25T18:17:48.712Z,1.40
2023-04-25T18:18:48.692Z,1.20
2023-04-25T18:19:49.181Z,1.00
2023-04-25T18:20:48.656Z,1.00
2023-04-25T18:21:48.720Z,0.60
2023-04-25T18:22:48.819Z,0.80
2023-04-25T18:23:48.792Z,0.60
2023-04-25T18:24:48.638Z,0.70
2023-04-25T18:25:48.611Z,0.70
2023-04-25T18:26:48.740Z,1.30
2023-04-25T18:27:48.728Z,0.50
2023-04-25T18:28:48.860Z,0.80
2023-04-25T18:29:48.582Z,1.00
2023-04-25T18:30:48.588Z,0.80
2023-04-25T18:31:49.684Z,0.60
2023-04-25T18:32:48.552Z,0.70
2023-04-25T18:33:48.573Z,0.70
2023-04-25T18:34:48.949Z,1.00
2023-04-25T18:35:58.098Z,0.90
2023-04-25T18:36:48.507Z,0.80
2023-04-25T18:37:49.157Z,1.00
2023-04-25T18:38:58.116Z,1.20
2023-04-25T18:45:46.004Z,8.60
2023-04-25T18:46:46.881Z,8.80
2023-04-25T18:47:47.091Z,7.00
2023-04-25T18:48:50.644Z,1.90
2023-04-25T18:49:46.813Z,1.30
2023-04-25T18:50:46.787Z,0.90
2023-04-25T18:51:48.330Z,0.40
2023-04-25T18:59:23.441Z,3.10
2023-04-25T19:00:24.348Z,3.30
2023-04-25T19:01:26.163Z,1.30
2023-04-25T19:02:24.419Z,0.60
2023-04-25T19:04:58.515Z,3.10
2023-04-25T19:05:55.620Z,3.30
2023-04-25T19:07:24.475Z,2.80
2023-04-25T19:07:47.792Z,3.20
2023-04-25T19:08:47.744Z,0.90
2023-04-25T19:09:48.558Z,0.60
2023-04-25T19:10:47.754Z,1.00
2023-04-25T19:11:49.450Z,1.20
2023-04-25T19:12:47.702Z,0.60
2023-04-25T19:13:47.718Z,0.90
2023-04-25T19:16:23.391Z,0.80
2023-04-25T19:16:30.530Z,1.20
2023-04-25T19:17:30.279Z,1.00
2023-04-25T19:18:28.788Z,0.50
2023-04-25T19:19:28.672Z,1.00
2023-04-25T19:20:28.692Z,0.90
2023-04-25T19:21:28.892Z,0.60
2023-04-25T19:22:28.701Z,0.70
2023-04-25T19:23:28.699Z,0.50
2023-04-25T19:24:28.704Z,0.50
2023-04-25T19:25:28.639Z,0.80
2023-04-25T19:26:28.984Z,0.70